Station Historical Data
Daily Summary for November 3, 2017 Units:  English    Metric   Both
« Previous Day
Next Day »
Daily Weekly Monthly Yearly Custom
  High: Low: Average:
Temperature: 75.9 °F 55.5 °F 64.5 °F
Dew Point: 65.3 °F 53.5 °F 59.8 °F
Humidity: 94% 66% 86%
Wind Speed: 4.6mph 0.0mph 0.2mph
Wind Gust: 5.0mph - -
Wind- - WSW
Pressure: 30.23 in 30.13 in -
Precipitation: 0.00 in    
Historical Graphs
 
 
Tabular Data for November 3, 2017
Time Temperature Dew Point Pressure Wind Wind Speed Wind Gust Humidity Rainfall Rate (Hourly) Conditions
00:01 59.4 °F 56.5 °F 30.22 in Calm     90% 0.00 in CLR
00:06 59.3 °F 56.4 °F 30.22 in Calm     90% 0.00 in CLR
00:11 59.2 °F 56.3 °F 30.22 in Calm     90% 0.00 in CLR
00:16 59.1 °F 56.2 °F 30.22 in Calm     90% 0.00 in CLR
00:21 59.0 °F 56.1 °F 30.22 in Calm     90% 0.00 in CLR
00:26 58.9 °F 56.3 °F 30.22 in Calm     91% 0.00 in CLR
00:31 58.8 °F 56.2 °F 30.22 in Calm     91% 0.00 in CLR
00:36 58.7 °F 56.1 °F 30.22 in Calm     91% 0.00 in CLR
00:41 58.7 °F 56.1 °F 30.22 in Calm     91% 0.00 in CLR
00:47 58.5 °F 55.9 °F 30.22 in Calm     91% 0.00 in CLR
00:52 58.4 °F 55.8 °F 30.22 in Calm     91% 0.00 in CLR
00:57 58.5 °F 55.9 °F 30.21 in Calm     91% 0.00 in CLR
01:02 58.5 °F 55.9 °F 30.22 in Calm     91% 0.00 in CLR
01:07 58.6 °F 56.3 °F 30.21 in Calm     92% 0.00 in CLR
01:12 58.6 °F 56.3 °F 30.21 in Calm     92% 0.00 in CLR
01:17 58.6 °F 56.3 °F 30.21 in Calm     92% 0.00 in CLR
01:22 58.7 °F 56.4 °F 30.21 in Calm     92% 0.00 in CLR
01:27 58.7 °F 56.4 °F 30.21 in Calm     92% 0.00 in CLR
01:32 58.7 °F 56.4 °F 30.20 in Calm     92% 0.00 in CLR
01:37 58.6 °F 56.3 °F 30.20 in Calm     92% 0.00 in CLR
01:42 58.4 °F 55.8 °F 30.20 in Calm     91% 0.00 in CLR
01:47 58.3 °F 56.0 °F 30.20 in Calm     92% 0.00 in CLR
01:52 58.2 °F 55.9 °F 30.20 in Calm     92% 0.00 in CLR
01:57 58.3 °F 56.0 °F 30.20 in Calm     92% 0.00 in CLR
02:02 58.2 °F 55.9 °F 30.20 in Calm     92% 0.00 in CLR
02:07 58.3 °F 56.0 °F 30.20 in Calm     92% 0.00 in CLR
02:12 58.4 °F 56.1 °F 30.19 in Calm     92% 0.00 in CLR
02:17 58.6 °F 56.6 °F 30.20 in Calm     93% 0.00 in CLR
02:22 58.7 °F 56.7 °F 30.20 in Calm     93% 0.00 in CLR
02:27 58.7 °F 56.4 °F 30.20 in Calm     92% 0.00 in CLR
02:33 58.6 °F 56.3 °F 30.20 in Calm     92% 0.00 in CLR
02:38 58.4 °F 56.1 °F 30.20 in Calm     92% 0.00 in CLR
02:43 58.0 °F 55.7 °F 30.20 in Calm     92% 0.00 in CLR
02:48 57.8 °F 55.5 °F 30.19 in Calm     92% 0.00 in CLR
02:53 57.8 °F 55.5 °F 30.19 in Calm     92% 0.00 in CLR
02:58 57.8 °F 55.5 °F 30.19 in Calm     92% 0.00 in CLR
03:03 58.0 °F 56.0 °F 30.20 in Calm     93% 0.00 in CLR
03:08 58.2 °F 56.2 °F 30.20 in Calm     93% 0.00 in CLR
03:13 58.2 °F 56.2 °F 30.20 in Calm     93% 0.00 in CLR
03:18 58.2 °F 56.2 °F 30.20 in Calm     93% 0.00 in CLR
03:23 57.9 °F 55.6 °F 30.20 in Calm     92% 0.00 in CLR
03:28 57.4 °F 55.1 °F 30.20 in Calm     92% 0.00 in CLR
03:33 57.1 °F 54.8 °F 30.20 in Calm     92% 0.00 in CLR
03:38 57.0 °F 54.7 °F 30.20 in Calm     92% 0.00 in CLR
03:43 56.8 °F 54.5 °F 30.20 in Calm     92% 0.00 in CLR
03:49 56.7 °F 54.4 °F 30.20 in Calm     92% 0.00 in CLR
03:54 56.7 °F 54.4 °F 30.20 in Calm     92% 0.00 in CLR
03:59 56.6 °F 54.3 °F 30.20 in Calm     92% 0.00 in CLR
04:04 56.5 °F 54.2 °F 30.20 in Calm     92% 0.00 in CLR
04:09 56.5 °F 54.2 °F 30.20 in Calm     92% 0.00 in CLR
04:14 56.4 °F 54.1 °F 30.20 in Calm     92% 0.00 in CLR
04:19 56.3 °F 54.0 °F 30.20 in Calm     92% 0.00 in CLR
04:24 56.3 °F 54.0 °F 30.20 in Calm     92% 0.00 in CLR
04:29 56.3 °F 54.0 °F 30.20 in Calm     92% 0.00 in CLR
04:34 56.4 °F 54.4 °F 30.20 in Calm     93% 0.00 in CLR
04:39 56.5 °F 54.5 °F 30.20 in Calm     93% 0.00 in CLR
04:44 56.5 °F 54.5 °F 30.20 in Calm     93% 0.00 in CLR
04:49 56.4 °F 54.4 °F 30.20 in Calm     93% 0.00 in CLR
04:54 56.5 °F 54.5 °F 30.20 in Calm     93% 0.00 in CLR
04:59 56.4 °F 54.4 °F 30.20 in Calm     93% 0.00 in CLR
05:04 56.2 °F 53.9 °F 30.20 in Calm     92% 0.00 in CLR
05:09 56.1 °F 53.8 °F 30.20 in Calm     92% 0.00 in CLR
05:14 56.0 °F 53.7 °F 30.20 in Calm     92% 0.00 in CLR
05:19 55.9 °F 53.9 °F 30.20 in Calm     93% 0.00 in CLR
05:24 55.9 °F 53.9 °F 30.20 in Calm     93% 0.00 in CLR
05:29 55.9 °F 53.9 °F 30.20 in Calm     93% 0.00 in CLR
05:34 55.9 °F 53.9 °F 30.20 in Calm     93% 0.00 in CLR
05:39 55.9 °F 53.9 °F 30.19 in Calm     93% 0.00 in CLR
05:44 55.9 °F 53.9 °F 30.20 in Calm     93% 0.00 in CLR
05:49 55.9 °F 53.9 °F 30.20 in Calm     93% 0.00 in CLR
05:54 55.9 °F 53.9 °F 30.20 in Calm     93% 0.00 in CLR
05:59 55.9 °F 53.9 °F 30.20 in Calm     93% 0.00 in CLR
06:04 55.8 °F 53.8 °F 30.20 in Calm     93% 0.00 in CLR
06:10 55.7 °F 53.7 °F 30.20 in Calm     93% 0.00 in CLR
06:15 55.7 °F 53.7 °F 30.20 in Calm     93% 0.00 in CLR
06:20 55.6 °F 53.6 °F 30.20 in Calm     93% 0.00 in CLR
06:25 55.6 °F 53.6 °F 30.20 in Calm     93% 0.00 in CLR
06:30 55.6 °F 53.6 °F 30.20 in Calm     93% 0.00 in CLR
06:35 55.6 °F 53.6 °F 30.20 in Calm     93% 0.00 in CLR
06:40 55.6 °F 53.6 °F 30.20 in Calm     93% 0.00 in CLR
06:45 55.6 °F 53.6 °F 30.20 in Calm     93% 0.00 in CLR
06:50 55.5 °F 53.5 °F 30.20 in Calm     93% 0.00 in CLR
06:55 55.6 °F 53.6 °F 30.20 in Calm     93% 0.00 in SCT
07:00 55.9 °F 53.9 °F 30.20 in Calm     93% 0.00 in SCT
07:05 56.1 °F 54.1 °F 30.21 in Calm     93% 0.00 in SCT
07:10 56.1 °F 54.1 °F 30.21 in Calm     93% 0.00 in SCT
07:15 56.0 °F 54.0 °F 30.21 in Calm     93% 0.00 in SCT
07:20 55.8 °F 53.8 °F 30.21 in Calm     93% 0.00 in SCT
07:25 55.7 °F 53.7 °F 30.21 in Calm     93% 0.00 in SCT
07:30 55.7 °F 53.7 °F 30.21 in Calm     93% 0.00 in SCT
07:35 55.9 °F 53.9 °F 30.21 in Calm     93% 0.00 in SCT
07:40 56.0 °F 54.0 °F 30.21 in Calm     93% 0.00 in SCT
07:45 56.0 °F 54.0 °F 30.21 in Calm     93% 0.00 in SCT
07:50 56.2 °F 54.2 °F 30.21 in Calm     93% 0.00 in SCT
07:55 56.6 °F 54.9 °F 30.21 in Calm     94% 0.00 in SCT
08:00 56.7 °F 55.0 °F 30.21 in Calm     94% 0.00 in SCT
08:05 56.7 °F 54.7 °F 30.21 in Calm     93% 0.00 in SCT
08:10 56.8 °F 54.8 °F 30.21 in Calm     93% 0.00 in SCT
08:11 56.8 °F 54.8 °F 30.21 in Calm     93% 0.00 in SCT
08:16 56.7 °F 54.7 °F 30.21 in Calm     93% 0.00 in SCT
08:21 56.7 °F 54.7 °F 30.21 in Calm     93% 0.00 in SCT
08:26 56.7 °F 54.7 °F 30.21 in Calm     93% 0.00 in SCT
08:31 56.8 °F 54.8 °F 30.21 in Calm     93% 0.00 in SCT
08:36 56.9 °F 54.9 °F 30.21 in Calm     93% 0.00 in SCT
08:42 57.1 °F 55.1 °F 30.21 in Calm     93% 0.00 in SCT
08:47 57.2 °F 55.2 °F 30.22 in Calm     93% 0.00 in SCT
08:52 57.3 °F 55.3 °F 30.22 in Calm     93% 0.00 in SCT
08:57 57.4 °F 55.4 °F 30.22 in Calm     93% 0.00 in SCT
09:02 57.4 °F 55.4 °F 30.22 in Calm     93% 0.00 in SCT
09:07 57.6 °F 55.6 °F 30.22 in Calm     93% 0.00 in SCT
09:12 57.8 °F 55.8 °F 30.22 in Calm     93% 0.00 in SCT
09:17 58.1 °F 56.4 °F 30.23 in Calm     94% 0.00 in SCT
09:22 58.4 °F 56.7 °F 30.23 in Calm     94% 0.00 in SCT
09:27 58.8 °F 57.1 °F 30.23 in Calm     94% 0.00 in SCT
09:32 59.1 °F 57.4 °F 30.23 in Calm     94% 0.00 in SCT
09:37 59.5 °F 57.8 °F 30.23 in Calm     94% 0.00 in SCT
09:42 59.7 °F 58.0 °F 30.23 in Calm     94% 0.00 in SCT
09:47 60.0 °F 58.3 °F 30.23 in Calm     94% 0.00 in SCT
09:52 60.3 °F 58.6 °F 30.23 in Calm     94% 0.00 in SCT
09:57 60.6 °F 58.9 °F 30.23 in Calm     94% 0.00 in SCT
10:02 60.9 °F 58.9 °F 30.23 in Calm     93% 0.00 in BKN
10:07 61.3 °F 59.3 °F 30.23 in Calm     93% 0.00 in BKN
10:12 61.8 °F 59.8 °F 30.23 in Calm     93% 0.00 in BKN
10:17 62.5 °F 60.1 °F 30.23 in Calm     92% 0.00 in BKN
10:23 63.2 °F 60.5 °F 30.23 in NNW 1.2 mph   91% 0.00 in BKN
10:28 63.6 °F 60.3 °F 30.23 in WNW 1.0 mph 1.0 mph 89% 0.00 in BKN
10:33 64.2 °F 60.9 °F 30.23 in Calm     89% 0.00 in BKN
10:38 64.8 °F 60.8 °F 30.23 in Calm     87% 0.00 in BKN
10:40 65.2 °F 60.9 °F 30.23 in Calm     86% 0.00 in BKN
10:46 66.4 °F 61.8 °F 30.23 in Calm     85% 0.00 in BKN
10:51 67.4 °F 61.4 °F 30.23 in Calm     81% 0.00 in BKN
10:56 68.0 °F 62.3 °F 30.23 in Calm     82% 0.00 in BKN
11:01 68.4 °F 61.6 °F 30.23 in WNW 1.2 mph 1.2 mph 79% 0.00 in BKN
11:06 69.3 °F 62.5 °F 30.23 in WNW 1.2 mph   79% 0.00 in BKN
11:11 70.4 °F 62.5 °F 30.23 in WNW 1.2 mph   76% 0.00 in BKN
11:16 71.1 °F 62.8 °F 30.23 in Calm     75% 0.00 in BKN
11:21 71.2 °F 62.9 °F 30.23 in Calm     75% 0.00 in BKN
11:26 71.5 °F 63.2 °F 30.22 in NW 1.2 mph   75% 0.00 in BKN
11:31 71.8 °F 63.4 °F 30.23 in WSW 2.3 mph 2.3 mph 75% 0.00 in BKN
11:36 72.3 °F 63.5 °F 30.22 in Calm     74% 0.00 in BKN
11:41 72.3 °F 63.5 °F 30.22 in Calm     74% 0.00 in BKN
11:46 72.6 °F 64.2 °F 30.22 in Calm     75% 0.00 in BKN
11:51 72.6 °F 63.4 °F 30.22 in Calm     73% 0.00 in BKN
11:56 72.6 °F 63.1 °F 30.22 in Calm     72% 0.00 in BKN
12:01 72.6 °F 63.4 °F 30.22 in WSW 1.2 mph   73% 0.00 in BKN
12:03 72.6 °F 63.4 °F 30.22 in Calm     73% 0.00 in BKN
12:08 72.6 °F 63.4 °F 30.22 in SW 2.3 mph 2.3 mph 73% 0.00 in BKN
12:13 72.5 °F 63.4 °F 30.22 in Calm     73% 0.00 in SCT
12:18 72.6 °F 63.4 °F 30.21 in Calm     73% 0.00 in SCT
12:23 72.8 °F 64.0 °F 30.21 in Calm     74% 0.00 in SCT
12:28 73.1 °F 63.9 °F 30.21 in WNW 1.2 mph 1.2 mph 73% 0.00 in SCT
12:33 73.4 °F 64.2 °F 30.21 in Calm     73% 0.00 in SCT
12:38 73.7 °F 64.1 °F 30.21 in WNW 2.3 mph 2.3 mph 72% 0.00 in SCT
12:43 74.0 °F 64.0 °F 30.20 in West 3.5 mph 3.5 mph 71% 0.00 in SCT
12:48 74.0 °F 63.6 °F 30.20 in SSE 2.3 mph 2.3 mph 70% 0.00 in SCT
12:53 73.9 °F 64.7 °F 30.20 in Calm     73% 0.00 in SCT
12:58 74.0 °F 64.4 °F 30.20 in WNW 1.2 mph   72% 0.00 in SCT
13:03 74.2 °F 64.6 °F 30.19 in WSW 1.2 mph 1.2 mph 72% 0.00 in BKN
13:08 74.5 °F 64.5 °F 30.19 in WNW 2.3 mph 2.3 mph 71% 0.00 in BKN
13:13 74.5 °F 64.5 °F 30.19 in WNW 1.2 mph 1.2 mph 71% 0.00 in BKN
13:18 74.7 °F 65.1 °F 30.19 in West 1.2 mph   72% 0.00 in BKN
13:23 74.8 °F 64.4 °F 30.19 in West 1.2 mph 1.2 mph 70% 0.00 in BKN
13:28 74.8 °F 64.4 °F 30.19 in Calm     70% 0.00 in BKN
13:34 74.6 °F 64.6 °F 30.18 in WNW 1.2 mph   71% 0.00 in BKN
13:39 74.4 °F 64.4 °F 30.18 in Calm   0.2 mph 71% 0.00 in BKN
13:44 74.2 °F 65.0 °F 30.18 in WNW 1.2 mph   73% 0.00 in BKN
13:49 74.9 °F 64.9 °F 30.17 in WNW 1.2 mph 1.2 mph 71% 0.00 in BKN
13:54 75.6 °F 64.7 °F 30.17 in ENE 3.5 mph 3.5 mph 69% 0.00 in BKN
13:59 75.5 °F 64.2 °F 30.17 in SSE 1.2 mph 1.2 mph 68% 0.00 in BKN
14:04 75.1 °F 64.2 °F 30.17 in Calm     69% 0.00 in BKN
14:09 75.1 °F 64.2 °F 30.17 in Calm     69% 0.00 in BKN
14:14 75.0 °F 64.1 °F 30.17 in ESE 2.3 mph 2.3 mph 69% 0.00 in BKN
14:19 74.9 °F 64.5 °F 30.16 in Calm     70% 0.00 in BKN
14:24 75.0 °F 64.1 °F 30.16 in SSW 4.6 mph 4.6 mph 69% 0.00 in BKN
14:29 75.5 °F 64.2 °F 30.16 in West 1.2 mph 1.2 mph 68% 0.00 in BKN
14:34 75.9 °F 63.7 °F 30.16 in WNW 2.3 mph 2.3 mph 66% 0.00 in BKN
14:39 75.9 °F 64.2 °F 30.16 in WNW 1.2 mph 1.2 mph 67% 0.00 in BKN
14:44 75.7 °F 64.0 °F 30.16 in WNW 1.2 mph 1.2 mph 67% 0.00 in BKN
14:49 75.3 °F 64.0 °F 30.15 in Calm     68% 0.00 in BKN
14:54 75.1 °F 64.2 °F 30.15 in Calm     69% 0.00 in BKN
15:00 74.9 °F 64.0 °F 30.15 in Calm     69% 0.00 in BKN
15:05 74.8 °F 63.9 °F 30.15 in West 1.2 mph   69% 0.00 in OVC
15:10 74.7 °F 64.7 °F 30.15 in Calm     71% 0.00 in OVC
15:15 74.7 °F 64.7 °F 30.14 in Calm     71% 0.00 in OVC
15:20 74.9 °F 64.5 °F 30.14 in Calm     70% 0.00 in OVC
15:25 74.8 °F 64.0 °F 30.14 in Calm   1.0 mph 69% 0.00 in OVC
15:30 74.7 °F 64.2 °F 30.14 in Calm   1.0 mph 70% 0.00 in OVC
15:35 74.5 °F 64.5 °F 30.14 in Calm   1.0 mph 71% 0.00 in OVC
15:40 74.3 °F 64.7 °F 30.14 in Calm     72% 0.00 in OVC
15:45 74.2 °F 64.6 °F 30.14 in Calm     72% 0.00 in OVC
15:50 74.0 °F 65.2 °F 30.14 in Calm   1.0 mph 74% 0.00 in OVC
15:55 73.8 °F 64.2 °F 30.14 in Calm   1.0 mph 72% 0.00 in OVC
16:00 73.7 °F 63.7 °F 30.14 in Calm   1.0 mph 71% 0.00 in OVC
16:05 73.6 °F 64.0 °F 30.14 in Calm   1.0 mph 72% 0.00 in BKN
16:10 73.6 °F 64.0 °F 30.14 in Calm   1.0 mph 72% 0.00 in BKN
16:15 73.7 °F 64.9 °F 30.14 in Calm   1.0 mph 74% 0.00 in BKN
16:20 73.6 °F 64.4 °F 30.14 in Calm     73% 0.00 in BKN
16:25 73.5 °F 64.4 °F 30.14 in Calm   1.0 mph 73% 0.00 in BKN
16:30 73.5 °F 65.1 °F 30.14 in Calm     75% 0.00 in BKN
16:35 73.4 °F 64.6 °F 30.14 in Calm   1.0 mph 74% 0.00 in BKN
16:40 73.3 °F 64.5 °F 30.14 in Calm   1.0 mph 74% 0.00 in BKN
16:45 73.4 °F 64.6 °F 30.14 in Calm   1.0 mph 74% 0.00 in BKN
16:50 73.6 °F 65.2 °F 30.14 in Calm     75% 0.00 in BKN
16:55 73.5 °F 64.3 °F 30.13 in Calm   1.0 mph 73% 0.00 in BKN
17:00 73.6 °F 64.8 °F 30.13 in Calm   2.0 mph 74% 0.00 in BKN
17:05 73.4 °F 64.6 °F 30.13 in Calm   1.0 mph 74% 0.00 in BKN
17:10 73.3 °F 64.5 °F 30.13 in Calm     74% 0.00 in BKN
17:15 73.2 °F 65.2 °F 30.13 in Calm     76% 0.00 in BKN
17:20 73.0 °F 65.0 °F 30.13 in Calm     76% 0.00 in BKN
17:25 72.9 °F 65.3 °F 30.14 in Calm     77% 0.00 in BKN
17:30 72.7 °F 65.1 °F 30.14 in Calm     77% 0.00 in BKN
17:35 72.7 °F 65.1 °F 30.13 in Calm   5.0 mph 77% 0.00 in BKN
17:40 72.6 °F 65.3 °F 30.13 in Calm     78% 0.00 in BKN
17:45 72.5 °F 65.2 °F 30.13 in Calm     78% 0.00 in BKN
17:50 72.4 °F 65.2 °F 30.13 in Calm   1.0 mph 78% 0.00 in BKN
17:55 72.0 °F 64.8 °F 30.14 in Calm     78% 0.00 in BKN
18:00 71.8 °F 64.9 °F 30.14 in Calm   1.0 mph 79% 0.00 in BKN
18:05 71.4 °F 64.9 °F 30.14 in Calm     80% 0.00 in BKN
18:10 71.2 °F 65.1 °F 30.14 in Calm   1.0 mph 81% 0.00 in BKN
18:15 71.0 °F 64.9 °F 30.14 in Calm     81% 0.00 in BKN
18:20 70.9 °F 64.7 °F 30.14 in Calm     81% 0.00 in BKN
18:25 70.6 °F 64.8 °F 30.14 in Calm     82% 0.00 in BKN
18:30 70.3 °F 64.5 °F 30.14 in Calm     82% 0.00 in BKN
18:35 70.0 °F 64.2 °F 30.13 in Calm     82% 0.00 in BKN
18:40 69.6 °F 64.2 °F 30.13 in Calm     83% 0.00 in BKN
18:45 69.2 °F 63.9 °F 30.13 in Calm     83% 0.00 in BKN
18:50 69.0 °F 63.9 °F 30.13 in Calm     84% 0.00 in BKN
18:55 68.6 °F 63.6 °F 30.14 in Calm     84% 0.00 in BKN
19:00 68.5 °F 63.4 °F 30.13 in Calm     84% 0.00 in BKN
19:05 68.3 °F 63.6 °F 30.14 in Calm     85% 0.00 in BKN
19:10 68.0 °F 63.3 °F 30.14 in Calm     85% 0.00 in BKN
19:15 67.8 °F 63.1 °F 30.14 in Calm     85% 0.00 in BKN
19:20 67.6 °F 63.3 °F 30.14 in Calm     86% 0.00 in BKN
19:25 67.5 °F 63.1 °F 30.13 in Calm     86% 0.00 in BKN
19:30 67.3 °F 63.0 °F 30.13 in Calm     86% 0.00 in BKN
19:35 67.1 °F 62.8 °F 30.13 in Calm     86% 0.00 in BKN
19:40 67.0 °F 62.7 °F 30.13 in Calm     86% 0.00 in BKN
19:45 66.8 °F 62.8 °F 30.13 in Calm     87% 0.00 in BKN
19:50 66.7 °F 62.7 °F 30.13 in Calm     87% 0.00 in BKN
19:55 66.5 °F 62.5 °F 30.13 in Calm     87% 0.00 in BKN
20:00 66.4 °F 62.7 °F 30.13 in Calm     88% 0.00 in BKN
20:05 66.4 °F 62.7 °F 30.14 in Calm     88% 0.00 in BKN
20:10 66.3 °F 62.6 °F 30.13 in Calm     88% 0.00 in BKN
20:15 66.2 °F 62.5 °F 30.13 in Calm     88% 0.00 in SCT
20:20 66.2 °F 62.5 °F 30.14 in Calm     88% 0.00 in SCT
20:25 66.0 °F 62.4 °F 30.14 in Calm     88% 0.00 in SCT
20:30 65.9 °F 62.2 °F 30.14 in Calm     88% 0.00 in SCT
20:35 65.7 °F 62.4 °F 30.14 in Calm     89% 0.00 in SCT
20:40 65.5 °F 62.2 °F 30.14 in Calm     89% 0.00 in SCT
20:45 65.4 °F 62.1 °F 30.14 in Calm     89% 0.00 in SCT
20:50 65.2 °F 61.9 °F 30.14 in Calm     89% 0.00 in SCT
20:55 65.1 °F 61.8 °F 30.14 in Calm     89% 0.00 in SCT
21:00 64.9 °F 61.9 °F 30.14 in Calm     90% 0.00 in SCT
21:05 64.9 °F 61.9 °F 30.14 in Calm     90% 0.00 in FEW
21:10 64.8 °F 61.8 °F 30.14 in Calm     90% 0.00 in FEW
21:15 64.7 °F 61.7 °F 30.14 in Calm     90% 0.00 in FEW
21:20 64.6 °F 61.6 °F 30.14 in Calm     90% 0.00 in FEW
21:25 64.5 °F 61.5 °F 30.14 in Calm     90% 0.00 in FEW
21:30 64.4 °F 61.4 °F 30.14 in Calm     90% 0.00 in FEW
21:35 64.3 °F 61.6 °F 30.14 in Calm     91% 0.00 in FEW
21:40 64.2 °F 61.5 °F 30.14 in Calm     91% 0.00 in FEW
21:45 64.2 °F 61.5 °F 30.14 in Calm     91% 0.00 in FEW
21:51 64.1 °F 61.4 °F 30.14 in Calm     91% 0.00 in FEW
21:56 64.1 °F 61.4 °F 30.14 in Calm     91% 0.00 in FEW
22:01 64.2 °F 61.8 °F 30.14 in Calm     92% 0.00 in FEW
22:06 64.3 °F 61.9 °F 30.14 in SSW 1.2 mph   92% 0.00 in BKN
22:11 64.3 °F 61.9 °F 30.14 in Calm     92% 0.00 in BKN
22:16 64.4 °F 62.0 °F 30.14 in Calm     92% 0.00 in BKN
22:21 64.3 °F 61.6 °F 30.14 in Calm     91% 0.00 in BKN
22:26 64.3 °F 61.9 °F 30.14 in Calm     92% 0.00 in BKN
22:31 64.2 °F 61.5 °F 30.14 in Calm     91% 0.00 in BKN
22:36 63.9 °F 61.2 °F 30.14 in Calm     91% 0.00 in BKN
22:41 63.5 °F 60.8 °F 30.14 in Calm     91% 0.00 in BKN
22:46 63.3 °F 60.6 °F 30.14 in Calm     91% 0.00 in BKN
22:51 63.3 °F 60.9 °F 30.15 in Calm     92% 0.00 in BKN
22:56 63.4 °F 61.0 °F 30.15 in Calm     92% 0.00 in BKN
23:01 63.3 °F 60.9 °F 30.15 in Calm     92% 0.00 in BKN
23:06 63.3 °F 60.9 °F 30.15 in Calm     92% 0.00 in BKN
23:11 63.5 °F 61.1 °F 30.15 in Calm     92% 0.00 in BKN
23:21 63.5 °F 61.1 °F 30.15 in Calm     92% 0.00 in BKN
23:22 63.4 °F 61.0 °F 30.15 in Calm     92% 0.00 in BKN
23:28 63.4 °F 61.0 °F 30.15 in Calm     92% 0.00 in BKN
23:32 63.5 °F 61.1 °F 30.16 in Calm     92% 0.00 in BKN
23:37 63.4 °F 61.0 °F 30.16 in Calm     92% 0.00 in BKN
23:41 63.3 °F 60.9 °F 30.16 in Calm     92% 0.00 in BKN
23:46 63.2 °F 60.8 °F 30.15 in Calm     92% 0.00 in BKN
23:51 63.1 °F 60.7 °F 30.16 in Calm     92% 0.00 in BKN
23:56 63.0 °F 60.6 °F 30.16 in Calm     92% 0.00 in BKN
Piedmont Bend
Compliments of Weather Underground - 4 mb